createdAt,value
2018-01-11T00:00:17.511Z,2.11
2018-01-11T00:01:44.819Z,2.12
2018-01-11T00:03:13.088Z,2.15
2018-01-11T00:04:40.398Z,2.17
2018-01-11T00:06:12.345Z,2.21
2018-01-11T00:07:34.397Z,2.25
2018-01-11T00:09:00.589Z,2.29
2018-01-11T00:10:28.725Z,2.27
2018-01-11T00:11:55.847Z,2.25
2018-01-11T00:13:21.966Z,2.25
2018-01-11T00:14:50.138Z,2.23
2018-01-11T00:16:17.336Z,2.25
2018-01-11T00:17:44.209Z,2.27
2018-01-11T00:19:11.415Z,2.26
2018-01-11T00:20:37.543Z,2.21
2018-01-11T00:22:05.859Z,2.21
2018-01-11T00:23:31.971Z,2.21
2018-01-11T00:24:59.204Z,2.13
2018-01-11T00:26:27.292Z,2.08
2018-01-11T00:27:54.219Z,2.11
2018-01-11T00:29:21.030Z,2.13
2018-01-11T00:30:48.196Z,2.04
2018-01-11T00:32:14.328Z,1.99
2018-01-11T00:33:42.564Z,1.90
2018-01-11T00:35:09.760Z,1.86
2018-01-11T00:36:36.984Z,1.83
2018-01-11T00:38:04.060Z,1.79
2018-01-11T00:39:30.376Z,1.75
2018-01-11T00:40:58.440Z,1.68
2018-01-11T00:42:25.597Z,1.64
2018-01-11T00:43:52.479Z,1.62
2018-01-11T00:45:19.483Z,1.66
2018-01-11T00:46:46.757Z,1.73
2018-01-11T00:48:13.858Z,1.73
2018-01-11T00:49:40.151Z,1.67
2018-01-11T00:51:08.265Z,1.62
2018-01-11T00:52:35.366Z,1.56
2018-01-11T00:54:02.500Z,1.52
2018-01-11T00:55:29.842Z,1.46
2018-01-11T00:56:57.112Z,1.41
2018-01-11T00:58:23.221Z,1.38
2018-01-11T00:59:51.122Z,1.37
2018-01-11T01:01:17.301Z,1.34
2018-01-11T01:02:45.332Z,1.31
2018-01-11T01:04:12.527Z,1.28
2018-01-11T01:05:38.589Z,1.29
2018-01-11T01:07:06.834Z,1.31
2018-01-11T01:08:32.923Z,1.31
2018-01-11T01:10:01.097Z,1.30
2018-01-11T01:11:28.143Z,1.32
2018-01-11T01:12:55.283Z,1.34
2018-01-11T01:14:21.528Z,1.33
2018-01-11T01:15:49.536Z,1.34
2018-01-11T01:17:16.770Z,1.33
2018-01-11T01:18:43.065Z,1.31
2018-01-11T01:20:10.238Z,1.29
2018-01-11T01:21:37.456Z,1.27
2018-01-11T01:23:04.728Z,1.25
2018-01-11T01:24:32.793Z,1.24
2018-01-11T01:25:59.888Z,1.25
2018-01-11T01:27:27.060Z,1.23
2018-01-11T01:28:54.127Z,1.22
2018-01-11T01:30:21.106Z,1.21
2018-01-11T01:31:48.021Z,1.21
2018-01-11T01:33:15.491Z,1.21
2018-01-11T01:34:42.539Z,1.20
2018-01-11T01:36:09.839Z,1.17
2018-01-11T01:37:36.929Z,1.17
2018-01-11T01:39:04.134Z,1.16
2018-01-11T01:40:30.124Z,1.17
2018-01-11T01:41:58.396Z,1.17
2018-01-11T01:43:25.405Z,1.17
2018-01-11T01:44:52.638Z,1.16
2018-01-11T01:46:19.759Z,1.15
2018-01-11T01:47:46.789Z,1.15
2018-01-11T01:49:13.796Z,1.16
2018-01-11T01:50:40.121Z,1.16
2018-01-11T01:52:07.216Z,1.15
2018-01-11T01:53:35.208Z,1.16
2018-01-11T01:55:02.467Z,1.18
2018-01-11T01:56:29.769Z,1.18
2018-01-11T01:57:56.870Z,1.19
2018-01-11T01:59:23.046Z,1.19
2018-01-11T02:00:51.163Z,1.19
2018-01-11T02:02:18.259Z,1.17
2018-01-11T02:03:45.453Z,1.18
2018-01-11T02:05:12.682Z,1.17
2018-01-11T02:06:39.943Z,1.18
2018-01-11T02:08:06.053Z,1.18
2018-01-11T02:09:34.313Z,1.17
2018-01-11T02:11:00.422Z,1.15
2018-01-11T02:12:28.459Z,1.13
2018-01-11T02:13:54.587Z,1.13
2018-01-11T02:15:22.501Z,1.13
2018-01-11T02:16:49.587Z,1.13
2018-01-11T02:18:16.285Z,1.13
2018-01-11T02:19:43.545Z,1.13
2018-01-11T02:21:10.727Z,1.11
2018-01-11T02:22:37.583Z,1.13
2018-01-11T02:24:04.748Z,1.13
2018-01-11T02:25:31.915Z,1.11
2018-01-11T02:26:59.183Z,1.09
2018-01-11T02:28:25.294Z,1.08
2018-01-11T02:29:53.435Z,1.07
2018-01-11T02:31:20.580Z,1.06
2018-01-11T02:32:47.638Z,1.04
2018-01-11T02:34:14.880Z,1.04
2018-01-11T02:35:42.180Z,1.06
2018-01-11T02:37:09.526Z,1.08
2018-01-11T02:38:35.515Z,1.09
2018-01-11T02:40:03.781Z,1.07
2018-01-11T02:41:30.714Z,1.07
2018-01-11T02:42:58.102Z,1.08
2018-01-11T02:44:25.023Z,1.08
2018-01-11T02:45:51.424Z,1.08
2018-01-11T02:47:19.385Z,1.07
2018-01-11T02:48:46.769Z,1.08
2018-01-11T02:50:17.971Z,1.08
2018-01-11T02:51:41.183Z,1.09
2018-01-11T02:53:08.332Z,1.09
2018-01-11T02:54:35.586Z,1.08
2018-01-11T02:56:01.676Z,1.08
2018-01-11T02:57:28.884Z,1.07
2018-01-11T02:58:56.147Z,1.08
2018-01-11T03:00:24.033Z,1.09
2018-01-11T03:01:51.283Z,1.10
2018-01-11T03:03:18.024Z,1.10
2018-01-11T03:04:44.286Z,1.12
2018-01-11T03:06:17.695Z,1.13
2018-01-11T03:07:38.675Z,1.11
2018-01-11T03:09:06.741Z,1.12
2018-01-11T03:10:33.683Z,1.12
2018-01-11T03:12:00.990Z,1.11
2018-01-11T03:13:28.214Z,1.11
2018-01-11T03:14:54.388Z,1.12
2018-01-11T03:16:22.514Z,1.13
2018-01-11T03:17:49.691Z,1.12
2018-01-11T03:19:16.723Z,1.10
2018-01-11T03:20:44.055Z,1.10
2018-01-11T03:22:10.284Z,1.09
2018-01-11T03:23:38.367Z,1.10
2018-01-11T03:25:05.553Z,1.11
2018-01-11T03:26:32.676Z,1.14
2018-01-11T03:27:58.798Z,1.16
2018-01-11T03:29:26.125Z,1.18
2018-01-11T03:30:54.340Z,1.18
2018-01-11T03:32:21.109Z,1.17
2018-01-11T03:33:47.221Z,1.15
2018-01-11T03:35:15.298Z,1.14
2018-01-11T03:36:42.547Z,1.13
2018-01-11T03:38:09.858Z,1.13
2018-01-11T03:39:36.751Z,1.13
2018-01-11T03:41:03.964Z,1.15
2018-01-11T03:42:31.190Z,1.15
2018-01-11T03:43:58.604Z,1.16
2018-01-11T03:45:25.554Z,1.16
2018-01-11T03:46:52.603Z,1.16
2018-01-11T03:48:19.858Z,1.17
2018-01-11T03:49:46.901Z,1.19
2018-01-11T03:51:14.067Z,1.21
2018-01-11T03:52:41.477Z,1.21
2018-01-11T03:54:07.538Z,1.22
2018-01-11T03:55:35.651Z,1.25
2018-01-11T03:57:02.733Z,1.27
2018-01-11T03:58:30.122Z,1.27
2018-01-11T03:59:57.267Z,1.28
2018-01-11T04:01:24.506Z,1.31
2018-01-11T04:02:50.640Z,1.34
2018-01-11T04:04:18.698Z,1.37
2018-01-11T04:05:45.702Z,1.39
2018-01-11T04:07:13.032Z,1.41
2018-01-11T04:08:40.117Z,1.41
2018-01-11T04:10:07.489Z,1.41
2018-01-11T04:11:34.528Z,1.42
2018-01-11T04:13:01.756Z,1.41
2018-01-11T04:14:28.789Z,1.42
2018-01-11T04:15:56.114Z,1.43
2018-01-11T04:17:22.123Z,1.42
2018-01-11T04:18:50.177Z,1.42
2018-01-11T04:20:17.240Z,1.41
2018-01-11T04:21:44.450Z,1.41
2018-01-11T04:23:10.751Z,1.42
2018-01-11T04:24:40.811Z,1.42
2018-01-11T04:26:05.054Z,1.43
2018-01-11T04:27:32.206Z,1.46
2018-01-11T04:29:00.300Z,1.49
2018-01-11T04:30:27.599Z,1.52
2018-01-11T04:31:53.650Z,1.56
2018-01-11T04:33:21.980Z,1.59
2018-01-11T04:34:48.147Z,1.62
2018-01-11T04:36:15.416Z,1.64
2018-01-11T04:37:43.490Z,1.68
2018-01-11T04:39:10.702Z,1.71
2018-01-11T04:40:37.699Z,1.78
2018-01-11T04:42:03.748Z,1.85
2018-01-11T04:43:32.166Z,1.88
2018-01-11T04:44:58.037Z,1.86
2018-01-11T04:46:26.514Z,1.81
2018-01-11T04:47:53.394Z,1.76
2018-01-11T04:49:19.601Z,1.72
2018-01-11T04:50:47.713Z,1.72
2018-01-11T04:52:14.824Z,1.73
2018-01-11T04:53:42.252Z,1.75
2018-01-11T04:55:08.519Z,1.76
2018-01-11T04:56:36.610Z,1.76
2018-01-11T04:58:03.739Z,1.76
2018-01-11T04:59:29.988Z,1.73
2018-01-11T05:00:58.005Z,1.71
2018-01-11T05:02:24.962Z,1.70
2018-01-11T05:03:52.169Z,1.71
2018-01-11T05:05:18.063Z,1.72
2018-01-11T05:06:46.233Z,1.74
2018-01-11T05:08:13.396Z,1.75
2018-01-11T05:09:40.244Z,1.76
2018-01-11T05:11:07.541Z,1.76
2018-01-11T05:12:34.522Z,1.78
2018-01-11T05:14:01.809Z,1.77
2018-01-11T05:15:28.204Z,1.76
2018-01-11T05:16:56.384Z,1.77
2018-01-11T05:18:23.310Z,1.78
2018-01-11T05:19:50.130Z,1.75
2018-01-11T05:21:16.229Z,1.73
2018-01-11T05:22:43.534Z,1.72
2018-01-11T05:24:11.721Z,1.73
2018-01-11T05:25:39.138Z,1.75
2018-01-11T05:27:04.958Z,1.75
2018-01-11T05:28:33.090Z,1.76
2018-01-11T05:30:00.279Z,1.77
2018-01-11T05:31:27.546Z,1.78
2018-01-11T05:32:54.706Z,1.77
2018-01-11T05:34:21.851Z,1.74
2018-01-11T05:35:48.811Z,1.74
2018-01-11T05:37:16.105Z,1.76
2018-01-11T05:38:43.158Z,1.76
2018-01-11T05:40:09.447Z,1.72
2018-01-11T05:41:36.683Z,1.69
2018-01-11T05:43:04.782Z,1.66
2018-01-11T05:44:30.986Z,1.64
2018-01-11T05:45:58.101Z,1.61
2018-01-11T05:47:26.160Z,1.60
2018-01-11T05:48:52.348Z,1.59
2018-01-11T05:50:20.250Z,1.58
2018-01-11T05:51:47.275Z,1.57
2018-01-11T05:53:14.516Z,1.56
2018-01-11T05:54:41.869Z,1.56
2018-01-11T05:56:08.825Z,1.58
2018-01-11T05:57:36.231Z,1.60
2018-01-11T05:59:03.337Z,1.61
2018-01-11T06:00:30.332Z,1.62
2018-01-11T06:01:57.305Z,1.62
2018-01-11T06:03:24.466Z,1.64
2018-01-11T06:04:51.696Z,1.64
2018-01-11T06:06:18.603Z,1.65
2018-01-11T06:07:44.886Z,1.65
2018-01-11T06:09:13.133Z,1.68
2018-01-11T06:10:39.489Z,1.70
2018-01-11T06:12:06.620Z,1.69
2018-01-11T06:13:34.880Z,1.70
2018-01-11T06:15:01.994Z,1.71
2018-01-11T06:16:29.112Z,1.69
2018-01-11T06:17:55.096Z,1.68
2018-01-11T06:19:23.221Z,1.67
2018-01-11T06:20:50.375Z,1.67
2018-01-11T06:22:17.476Z,1.67
2018-01-11T06:23:43.781Z,1.67
2018-01-11T06:25:11.948Z,1.67
2018-01-11T06:26:39.123Z,1.66
2018-01-11T06:28:06.081Z,1.66
2018-01-11T06:29:32.285Z,1.68
2018-01-11T06:30:59.414Z,1.69
2018-01-11T06:32:27.714Z,1.69
2018-01-11T06:33:54.752Z,1.70
2018-01-11T06:35:21.824Z,1.72
2018-01-11T06:36:48.888Z,1.73
2018-01-11T06:38:16.123Z,1.73
2018-01-11T06:39:43.482Z,1.73
2018-01-11T06:41:10.731Z,1.74
2018-01-11T06:42:37.179Z,1.79
2018-01-11T06:44:04.272Z,1.80
2018-01-11T06:45:32.255Z,1.82
2018-01-11T06:46:59.715Z,1.84
2018-01-11T06:48:26.752Z,1.87
2018-01-11T06:49:53.872Z,1.90
2018-01-11T06:51:20.108Z,1.92
2018-01-11T06:52:48.284Z,1.93
2018-01-11T06:54:14.459Z,1.93
2018-01-11T06:55:42.679Z,1.93
2018-01-11T06:57:10.010Z,1.93
2018-01-11T06:58:37.256Z,1.93
2018-01-11T07:00:03.377Z,1.91
2018-01-11T07:01:31.516Z,1.90
2018-01-11T07:02:58.704Z,1.88
2018-01-11T07:04:25.826Z,1.86
2018-01-11T07:05:52.147Z,1.85
2018-01-11T07:07:20.221Z,1.85
2018-01-11T07:08:47.169Z,1.84
2018-01-11T07:10:14.150Z,1.85
2018-01-11T07:11:41.172Z,1.88
2018-01-11T07:13:08.710Z,1.91
2018-01-11T07:14:35.879Z,1.94
2018-01-11T07:16:02.948Z,1.97
2018-01-11T07:17:29.911Z,1.98
2018-01-11T07:18:56.169Z,2.01
2018-01-11T07:20:24.411Z,2.04
2018-01-11T07:21:51.579Z,2.07
2018-01-11T07:23:18.811Z,2.08
2018-01-11T07:24:45.032Z,2.11
2018-01-11T07:26:12.147Z,2.12
2018-01-11T07:27:40.229Z,2.15
2018-01-11T07:29:07.744Z,2.17
2018-01-11T07:30:34.960Z,2.19
2018-01-11T07:32:01.921Z,2.22
2018-01-11T07:33:29.116Z,2.23
2018-01-11T07:34:55.415Z,2.25
2018-01-11T07:36:23.483Z,2.27
2018-01-11T07:37:50.658Z,2.29
2018-01-11T07:39:17.659Z,2.31
2018-01-11T07:40:44.874Z,2.33
2018-01-11T07:42:12.065Z,2.59
2018-01-11T07:43:38.378Z,2.40
2018-01-11T07:45:05.747Z,2.41
2018-01-11T07:46:33.913Z,2.41
2018-01-11T07:48:01.316Z,2.39
2018-01-11T07:49:28.155Z,2.39
2018-01-11T07:50:55.325Z,2.38
2018-01-11T07:52:21.466Z,2.39
2018-01-11T07:53:48.675Z,2.40
2018-01-11T07:55:16.708Z,2.39
2018-01-11T07:56:44.024Z,2.39
2018-01-11T07:58:11.146Z,2.38
2018-01-11T07:59:38.350Z,2.37
2018-01-11T08:01:04.541Z,2.37
2018-01-11T08:02:31.806Z,2.36
2018-01-11T08:04:00.091Z,2.36
2018-01-11T08:05:27.245Z,2.37
2018-01-11T08:06:54.607Z,2.37
2018-01-11T08:08:21.771Z,2.36
2018-01-11T08:09:49.147Z,2.32
2018-01-11T08:11:16.313Z,2.31
2018-01-11T08:12:42.470Z,2.31
2018-01-11T08:14:10.565Z,2.29
2018-01-11T08:15:36.895Z,2.28
2018-01-11T08:17:04.171Z,2.28
2018-01-11T08:18:32.212Z,2.26
2018-01-11T08:19:58.484Z,2.24
2018-01-11T08:21:25.872Z,2.24
2018-01-11T08:22:53.029Z,2.22
2018-01-11T08:24:21.202Z,2.18
2018-01-11T08:25:48.250Z,2.15
2018-01-11T08:27:14.565Z,2.14
2018-01-11T08:28:42.662Z,2.15
2018-01-11T08:30:09.836Z,2.14
2018-01-11T08:31:36.948Z,2.12
2018-01-11T08:33:03.031Z,2.10
2018-01-11T08:34:31.277Z,2.09
2018-01-11T08:35:57.556Z,2.08
2018-01-11T08:37:25.947Z,2.07
2018-01-11T08:38:52.158Z,2.06
2018-01-11T08:40:20.416Z,2.07
2018-01-11T08:41:47.442Z,2.07
2018-01-11T08:43:14.633Z,2.08
2018-01-11T08:44:41.023Z,2.08
2018-01-11T08:46:09.225Z,2.09
2018-01-11T08:47:36.368Z,2.10
2018-01-11T08:49:03.545Z,2.09
2018-01-11T08:50:30.622Z,2.11
2018-01-11T08:51:56.875Z,2.12
2018-01-11T08:53:24.124Z,2.12
2018-01-11T08:54:51.138Z,2.13
2018-01-11T08:56:19.109Z,2.14
2018-01-11T08:57:46.473Z,2.14
2018-01-11T08:59:13.623Z,2.14
2018-01-11T09:00:40.802Z,2.14
2018-01-11T09:02:08.045Z,2.16
2018-01-11T09:03:34.290Z,2.16
2018-01-11T09:05:02.438Z,2.16
2018-01-11T09:06:29.452Z,2.16
2018-01-11T09:07:56.743Z,2.17
2018-01-11T09:09:22.976Z,2.19
2018-01-11T09:10:50.129Z,2.21
2018-01-11T09:12:18.152Z,2.20
2018-01-11T09:13:44.638Z,2.20
2018-01-11T09:15:12.846Z,2.22
2018-01-11T09:16:40.065Z,2.23
2018-01-11T09:18:06.171Z,2.24
2018-01-11T09:19:34.388Z,2.26
2018-01-11T09:21:00.412Z,2.27
2018-01-11T09:22:28.506Z,2.27
2018-01-11T09:23:55.765Z,2.26
2018-01-11T09:25:22.914Z,2.27
2018-01-11T09:26:49.991Z,2.27
2018-01-11T09:28:16.246Z,2.26
2018-01-11T09:29:43.295Z,2.28
2018-01-11T09:31:10.549Z,2.27
2018-01-11T09:32:38.835Z,2.28
2018-01-11T09:34:06.120Z,2.29
2018-01-11T09:35:32.460Z,2.29
2018-01-11T09:37:00.530Z,2.31
2018-01-11T09:38:27.898Z,2.32
2018-01-11T09:39:54.955Z,2.32
2018-01-11T09:41:21.961Z,2.33
2018-01-11T09:42:48.306Z,2.32
2018-01-11T09:44:15.374Z,2.34
2018-01-11T09:45:43.623Z,2.35
2018-01-11T09:47:10.102Z,2.37
2018-01-11T09:48:37.395Z,2.37
2018-01-11T09:50:05.618Z,2.38
2018-01-11T09:51:31.946Z,2.38
2018-01-11T09:52:59.025Z,2.37
2018-01-11T09:54:26.070Z,2.39
2018-01-11T09:55:53.344Z,2.39
2018-01-11T09:57:20.393Z,2.42
2018-01-11T09:58:48.591Z,2.43
2018-01-11T10:00:15.771Z,2.45
2018-01-11T10:01:43.203Z,2.47
2018-01-11T10:03:10.398Z,2.48
2018-01-11T10:04:37.568Z,2.51
2018-01-11T10:06:03.900Z,2.52
2018-01-11T10:07:31.112Z,2.55
2018-01-11T10:08:59.405Z,2.57
2018-01-11T10:10:26.772Z,2.58
2018-01-11T10:11:53.756Z,2.60
2018-01-11T10:13:20.112Z,2.62
2018-01-11T10:14:48.256Z,2.63
2018-01-11T10:16:14.569Z,2.65
2018-01-11T10:19:09.246Z,2.68
2018-01-11T10:20:37.487Z,2.71
2018-01-11T10:22:04.281Z,2.72
2018-01-11T10:23:31.480Z,2.71
2018-01-11T10:24:58.778Z,2.72
2018-01-11T10:26:25.928Z,2.72
2018-01-11T10:27:52.162Z,2.73
2018-01-11T10:29:19.423Z,2.73
2018-01-11T10:30:46.505Z,2.73
2018-01-11T10:32:14.702Z,2.72
2018-01-11T10:33:40.844Z,2.72
2018-01-11T10:35:09.227Z,2.73
2018-01-11T10:36:36.318Z,2.73
2018-01-11T10:38:03.550Z,2.73
2018-01-11T10:39:30.584Z,2.73
2018-01-11T10:40:56.789Z,2.73
2018-01-11T10:42:25.073Z,2.73
2018-01-11T10:43:52.374Z,2.74
2018-01-11T10:45:19.267Z,2.74
2018-01-11T10:46:46.454Z,2.74
2018-01-11T10:48:13.783Z,2.75
2018-01-11T10:49:40.144Z,2.75
2018-01-11T10:51:08.543Z,2.76
2018-01-11T10:52:35.837Z,2.78
2018-01-11T10:54:03.040Z,2.79
2018-01-11T10:55:29.230Z,2.81
2018-01-11T10:56:57.319Z,2.82
2018-01-11T10:58:24.745Z,2.84
2018-01-11T10:59:52.019Z,2.85
2018-01-11T11:01:19.152Z,2.86
2018-01-11T11:02:46.328Z,2.87
2018-01-11T11:04:13.652Z,2.88
2018-01-11T11:05:40.822Z,2.89
2018-01-11T11:07:08.148Z,2.91
2018-01-11T11:08:35.561Z,2.93
2018-01-11T11:10:02.817Z,2.94
2018-01-11T11:11:30.074Z,2.95
2018-01-11T11:12:56.372Z,2.97
2018-01-11T11:14:23.608Z,2.98
2018-01-11T11:15:50.774Z,2.99
2018-01-11T11:17:18.900Z,3.00
2018-01-11T11:18:45.319Z,3.02
2018-01-11T11:20:12.535Z,3.03
2018-01-11T11:21:40.686Z,3.05
2018-01-11T11:23:08.142Z,3.06
2018-01-11T11:24:35.508Z,3.07
2018-01-11T11:26:01.099Z,3.08
2018-01-11T11:27:29.252Z,3.09
2018-01-11T11:28:56.547Z,3.11
2018-01-11T11:30:22.799Z,3.12
2018-01-11T11:31:50.012Z,3.13
2018-01-11T11:33:18.033Z,3.14
2018-01-11T11:34:44.410Z,3.15
2018-01-11T11:36:12.474Z,3.14
2018-01-11T11:37:38.933Z,3.15
2018-01-11T11:39:07.045Z,3.14
2018-01-11T11:40:33.375Z,3.14
2018-01-11T11:42:00.600Z,3.15
2018-01-11T11:43:27.812Z,3.15
2018-01-11T11:44:56.008Z,3.16
2018-01-11T11:46:22.091Z,3.16
2018-01-11T11:47:50.260Z,3.17
2018-01-11T11:49:16.337Z,3.18
2018-01-11T11:50:44.456Z,3.18
2018-01-11T11:52:11.589Z,3.18
2018-01-11T11:55:06.173Z,3.20
2018-01-11T11:56:32.482Z,3.21
2018-01-11T11:58:00.891Z,3.21
2018-01-11T11:59:27.341Z,3.21
2018-01-11T12:00:55.721Z,3.21
2018-01-11T12:02:21.978Z,3.22
2018-01-11T12:03:49.885Z,3.22
2018-01-11T12:05:16.943Z,3.23
2018-01-11T12:06:43.213Z,3.24
2018-01-11T12:08:11.487Z,3.25
2018-01-11T12:09:37.961Z,3.26
2018-01-11T12:11:06.334Z,3.27
2018-01-11T12:12:33.582Z,3.28
2018-01-11T12:13:59.555Z,3.29
2018-01-11T12:15:26.612Z,3.29
2018-01-11T12:16:54.959Z,3.31
2018-01-11T12:18:20.966Z,3.32
2018-01-11T12:19:49.127Z,3.34
2018-01-11T12:21:15.453Z,3.36
2018-01-11T12:22:42.527Z,3.36
2018-01-11T12:24:10.596Z,3.37
2018-01-11T12:25:37.903Z,3.39
2018-01-11T12:27:05.231Z,3.40
2018-01-11T12:28:31.386Z,3.41
2018-01-11T12:29:58.797Z,3.43
2018-01-11T12:31:27.185Z,3.45
2018-01-11T12:32:53.310Z,3.44
2018-01-11T12:34:21.517Z,3.46
2018-01-11T12:35:47.795Z,3.46
2018-01-11T12:37:15.055Z,3.46
2018-01-11T12:38:42.482Z,3.46
2018-01-11T12:40:09.789Z,3.47
2018-01-11T12:41:37.928Z,3.47
2018-01-11T12:43:04.318Z,3.48
2018-01-11T12:44:32.501Z,3.48
2018-01-11T12:45:59.764Z,3.49
2018-01-11T12:47:26.003Z,3.50
2018-01-11T12:48:54.149Z,3.49
2018-01-11T12:50:20.205Z,3.49
2018-01-11T12:51:48.393Z,3.48
2018-01-11T12:53:15.592Z,3.48
2018-01-11T12:54:42.821Z,3.48
2018-01-11T12:56:09.300Z,3.47
2018-01-11T12:57:37.586Z,3.46
2018-01-11T12:59:03.733Z,3.47
2018-01-11T13:00:31.884Z,3.47
2018-01-11T13:01:59.023Z,3.49
2018-01-11T13:03:25.198Z,3.50
2018-01-11T13:04:52.505Z,3.51
2018-01-11T13:06:20.700Z,3.52
2018-01-11T13:07:47.052Z,3.52
2018-01-11T13:09:15.090Z,3.53
2018-01-11T13:10:42.311Z,3.53
2018-01-11T13:12:09.715Z,3.53
2018-01-11T13:13:35.897Z,3.53
2018-01-11T13:15:02.834Z,3.52
2018-01-11T13:16:30.247Z,3.51
2018-01-11T13:17:57.560Z,3.51
2018-01-11T13:19:25.946Z,3.52
2018-01-11T13:20:53.173Z,3.51
2018-01-11T13:22:20.236Z,3.51
2018-01-11T13:23:47.382Z,3.50
2018-01-11T13:25:14.465Z,3.50
2018-01-11T13:26:41.994Z,3.50
2018-01-11T13:28:08.236Z,3.49
2018-01-11T13:29:36.572Z,3.49
2018-01-11T13:31:03.660Z,3.48
2018-01-11T13:32:30.910Z,3.47
2018-01-11T13:33:58.284Z,3.46
2018-01-11T13:35:24.174Z,3.45
2018-01-11T13:36:51.543Z,3.45
2018-01-11T13:38:18.453Z,3.44
2018-01-11T13:39:45.623Z,3.44
2018-01-11T13:41:13.835Z,3.44
2018-01-11T13:42:39.993Z,3.44
2018-01-11T13:44:08.155Z,3.42
2018-01-11T13:45:34.547Z,3.42
2018-01-11T13:47:01.816Z,3.42
2018-01-11T13:48:30.204Z,3.41
2018-01-11T13:49:57.438Z,3.40
2018-01-11T13:51:23.583Z,3.39
2018-01-11T13:52:50.669Z,3.39
2018-01-11T13:54:17.944Z,3.38
2018-01-11T13:55:46.263Z,3.38
2018-01-11T13:57:12.728Z,3.38
2018-01-11T13:58:39.960Z,3.37
2018-01-11T14:00:07.115Z,3.37
2018-01-11T14:01:35.316Z,3.36
2018-01-11T14:03:01.560Z,3.37
2018-01-11T14:04:28.959Z,3.38
2018-01-11T14:05:57.115Z,3.37
2018-01-11T14:07:24.050Z,3.37
2018-01-11T14:08:50.010Z,3.39
2018-01-11T14:10:18.173Z,3.39
2018-01-11T14:11:44.583Z,3.38
2018-01-11T14:13:12.901Z,3.38
2018-01-11T14:14:39.191Z,3.38
2018-01-11T14:16:06.542Z,3.36
2018-01-11T14:17:33.668Z,3.35
2018-01-11T14:19:00.915Z,3.35
2018-01-11T14:20:27.935Z,3.35
2018-01-11T14:21:54.934Z,3.36
2018-01-11T14:23:22.323Z,3.37
2018-01-11T14:24:50.233Z,3.39
2018-01-11T14:26:16.456Z,3.38
2018-01-11T14:27:43.799Z,3.40
2018-01-11T14:29:11.889Z,3.40
2018-01-11T14:32:05.406Z,3.40
2018-01-11T14:33:33.734Z,3.38
2018-01-11T14:35:00.064Z,3.37
2018-01-11T14:36:28.370Z,3.37
2018-01-11T14:37:55.463Z,3.36
2018-01-11T14:39:22.559Z,3.37
2018-01-11T14:40:48.912Z,3.37
2018-01-11T14:42:15.807Z,3.36
2018-01-11T14:43:43.242Z,3.36
2018-01-11T14:45:11.370Z,3.35
2018-01-11T14:46:38.552Z,3.33
2018-01-11T14:48:05.830Z,3.32
2018-01-11T14:49:32.012Z,3.30
2018-01-11T14:51:00.297Z,3.29
2018-01-11T14:52:27.330Z,3.28
2018-01-11T14:53:54.419Z,3.27
2018-01-11T14:55:21.533Z,3.26
2018-01-11T14:56:47.194Z,3.26
2018-01-11T14:58:15.262Z,3.25
2018-01-11T14:59:41.378Z,3.24
2018-01-11T15:01:08.597Z,3.22
2018-01-11T15:02:35.986Z,3.22
2018-01-11T15:04:02.967Z,3.21
2018-01-11T15:05:30.137Z,3.19
2018-01-11T15:06:57.302Z,3.19
2018-01-11T15:08:24.422Z,3.19
2018-01-11T15:09:51.501Z,3.18
2018-01-11T15:11:18.646Z,3.17
2018-01-11T15:12:46.878Z,3.16
2018-01-11T15:14:14.085Z,3.14
2018-01-11T15:15:40.367Z,3.14
2018-01-11T15:17:08.405Z,3.14
2018-01-11T15:18:35.899Z,3.13
2018-01-11T15:20:01.935Z,3.13
2018-01-11T15:21:29.154Z,3.16
2018-01-11T15:22:57.158Z,3.16
2018-01-11T15:24:24.299Z,3.16
2018-01-11T15:25:51.512Z,3.16
2018-01-11T15:27:18.516Z,3.16
2018-01-11T15:28:44.962Z,3.16
2018-01-11T15:30:13.097Z,3.17
2018-01-11T15:31:39.234Z,3.18
2018-01-11T15:33:07.419Z,3.20
2018-01-11T15:34:33.773Z,3.20
2018-01-11T15:36:01.846Z,3.23
2018-01-11T15:37:29.140Z,3.25
2018-01-11T15:38:56.331Z,3.27
2018-01-11T15:40:23.183Z,3.29
2018-01-11T15:41:50.456Z,3.28
2018-01-11T15:43:17.531Z,3.27
2018-01-11T15:44:43.788Z,3.27
2018-01-11T15:46:10.647Z,3.25
2018-01-11T15:47:40.911Z,3.24
2018-01-11T15:49:06.258Z,3.23
2018-01-11T15:50:32.432Z,3.22
2018-01-11T15:51:59.447Z,3.24
2018-01-11T15:53:27.691Z,3.23
2018-01-11T15:54:53.907Z,3.22
2018-01-11T15:56:22.152Z,3.21
2018-01-11T15:57:49.177Z,3.20
2018-01-11T15:59:16.284Z,3.19
2018-01-11T16:00:43.454Z,3.19
2018-01-11T16:02:10.140Z,3.18
2018-01-11T16:03:38.127Z,3.16
2018-01-11T16:05:06.322Z,3.14
2018-01-11T16:06:32.647Z,3.13
2018-01-11T16:07:59.889Z,3.13
2018-01-11T16:09:26.253Z,3.13
2018-01-11T16:10:54.508Z,3.13
2018-01-11T16:12:21.689Z,3.12
2018-01-11T16:13:48.772Z,3.12
2018-01-11T16:15:16.000Z,3.11
2018-01-11T16:16:43.053Z,3.10
2018-01-11T16:18:09.311Z,3.09
2018-01-11T16:19:36.656Z,3.07
2018-01-11T16:21:04.801Z,3.05
2018-01-11T16:22:31.977Z,3.02
2018-01-11T16:23:59.352Z,2.99
2018-01-11T16:25:26.321Z,2.98
2018-01-11T16:26:53.394Z,2.98
2018-01-11T16:28:20.549Z,3.00
2018-01-11T16:29:47.546Z,2.98
2018-01-11T16:31:13.787Z,2.99
2018-01-11T16:32:42.016Z,2.98
2018-01-11T16:34:09.213Z,2.98
2018-01-11T16:35:38.656Z,2.95
2018-01-11T16:37:02.690Z,2.92
2018-01-11T16:38:29.931Z,2.90
2018-01-11T16:39:57.966Z,2.86
2018-01-11T16:41:24.157Z,2.83
2018-01-11T16:42:51.246Z,2.79
2018-01-11T16:44:18.527Z,2.75
2018-01-11T16:45:45.710Z,2.72
2018-01-11T16:47:12.871Z,2.69
2018-01-11T16:48:41.135Z,2.66
2018-01-11T16:50:07.192Z,2.64
2018-01-11T16:51:35.467Z,2.63
2018-01-11T16:53:01.541Z,2.63
2018-01-11T16:54:29.742Z,2.64
2018-01-11T16:55:56.862Z,2.63
2018-01-11T16:57:23.035Z,2.65
2018-01-11T16:58:51.152Z,2.66
2018-01-11T17:00:18.090Z,2.67
2018-01-11T17:01:45.012Z,2.66
2018-01-11T17:03:11.362Z,2.65
2018-01-11T17:04:38.766Z,2.64
2018-01-11T17:06:08.123Z,2.65
2018-01-11T17:07:32.840Z,2.63
2018-01-11T17:08:59.713Z,2.63
2018-01-11T17:10:27.841Z,2.63
2018-01-11T17:11:53.877Z,2.63
2018-01-11T17:13:20.890Z,2.63
2018-01-11T17:14:53.813Z,2.63
2018-01-11T17:16:15.060Z,2.62
2018-01-11T17:17:43.250Z,2.62
2018-01-11T17:19:10.518Z,2.61
2018-01-11T17:20:37.735Z,2.61
2018-01-11T17:22:05.046Z,2.63
2018-01-11T17:23:32.348Z,2.63
2018-01-11T17:24:59.469Z,2.63
2018-01-11T17:26:27.001Z,2.59
2018-01-11T17:27:54.157Z,2.57
2018-01-11T17:29:21.132Z,2.55
2018-01-11T17:30:48.324Z,2.56
2018-01-11T17:32:15.389Z,2.57
2018-01-11T17:33:42.879Z,2.59
2018-01-11T17:35:10.019Z,2.60
2018-01-11T17:36:36.131Z,2.61
2018-01-11T17:38:03.241Z,2.62
2018-01-11T17:39:30.414Z,2.60
2018-01-11T17:40:57.501Z,2.58
2018-01-11T17:42:24.390Z,2.56
2018-01-11T17:43:51.600Z,2.56
2018-01-11T17:45:18.674Z,2.56
2018-01-11T17:46:46.720Z,2.55
2018-01-11T17:48:13.963Z,2.55
2018-01-11T17:49:40.213Z,2.56
2018-01-11T17:51:08.343Z,2.55
2018-01-11T17:52:34.503Z,2.55
2018-01-11T17:54:02.565Z,2.56
2018-01-11T17:55:29.882Z,2.58
2018-01-11T17:56:56.134Z,2.57
2018-01-11T17:58:24.433Z,2.56
2018-01-11T17:59:51.522Z,2.53
2018-01-11T18:01:18.774Z,2.54
2018-01-11T18:02:45.142Z,2.56
2018-01-11T18:04:13.262Z,2.56
2018-01-11T18:05:39.312Z,2.53
2018-01-11T18:07:07.432Z,2.52
2018-01-11T18:08:34.510Z,2.52
2018-01-11T18:10:01.639Z,2.53
2018-01-11T18:11:27.826Z,2.57
2018-01-11T18:12:54.892Z,2.60
2018-01-11T18:14:23.009Z,2.61
2018-01-11T18:15:49.813Z,2.61
2018-01-11T18:17:16.661Z,2.61
2018-01-11T18:18:43.851Z,2.60
2018-01-11T18:20:10.175Z,2.56
2018-01-11T18:21:38.348Z,2.54
2018-01-11T18:23:05.579Z,2.53
2018-01-11T18:24:31.700Z,2.54
2018-01-11T18:25:58.960Z,2.53
2018-01-11T18:27:26.023Z,2.53
2018-01-11T18:28:54.014Z,2.52
2018-01-11T18:30:21.162Z,2.53
2018-01-11T18:31:48.225Z,2.53
2018-01-11T18:33:15.531Z,2.52
2018-01-11T18:34:41.793Z,2.51
2018-01-11T18:36:09.082Z,2.51
2018-01-11T18:37:36.241Z,2.50
2018-01-11T18:39:04.508Z,2.52
2018-01-11T18:40:31.742Z,2.53
2018-01-11T18:41:58.052Z,2.49
2018-01-11T18:43:25.216Z,2.46
2018-01-11T18:44:53.294Z,2.47
2018-01-11T18:46:20.286Z,2.44
2018-01-11T18:47:46.289Z,2.45
2018-01-11T18:49:14.559Z,2.42
2018-01-11T18:50:41.869Z,2.41
2018-01-11T18:52:09.562Z,2.39
2018-01-11T18:53:36.100Z,2.39
2018-01-11T18:55:03.023Z,2.40
2018-01-11T18:56:30.141Z,2.41
2018-01-11T18:57:57.338Z,2.38
2018-01-11T18:59:24.428Z,2.38
2018-01-11T19:00:50.568Z,2.41
2018-01-11T19:02:18.468Z,2.40
2018-01-11T19:03:44.825Z,2.41
2018-01-11T19:05:11.996Z,2.41
2018-01-11T19:06:39.512Z,2.40
2018-01-11T19:08:06.450Z,2.39
2018-01-11T19:09:34.776Z,2.38
2018-01-11T19:11:01.756Z,2.38
2018-01-11T19:12:28.955Z,2.38
2018-01-11T19:13:56.199Z,2.36
2018-01-11T19:15:23.142Z,2.35
2018-01-11T19:16:50.209Z,2.37
2018-01-11T19:18:16.045Z,2.38
2018-01-11T19:19:44.269Z,2.41
2018-01-11T19:21:11.133Z,2.42
2018-01-11T19:22:38.431Z,2.40
2018-01-11T19:24:05.151Z,2.34